sensor_id;sensor_type;location;lat;lon;timestamp;pressure;altitude;pressure_sealevel;temperature;humidity
43364;BME280;40636;52.424;-1.948;2022-10-26T00:00:49;98798.03;;;13.07;100.00
43364;BME280;40636;52.424;-1.948;2022-10-26T00:03:16;98798.63;;;13.04;100.00
43364;BME280;40636;52.424;-1.948;2022-10-26T00:05:44;98784.88;;;13.04;100.00
43364;BME280;40636;52.424;-1.948;2022-10-26T00:08:10;98780.44;;;13.03;100.00
43364;BME280;40636;52.424;-1.948;2022-10-26T00:10:38;98776.88;;;13.03;100.00
43364;BME280;40636;52.424;-1.948;2022-10-26T00:13:07;98779.06;;;13.06;100.00
43364;BME280;40636;52.424;-1.948;2022-10-26T00:15:39;98784.25;;;13.07;100.00
43364;BME280;40636;52.424;-1.948;2022-10-26T00:18:06;98786.72;;;13.09;100.00
43364;BME280;40636;52.424;-1.948;2022-10-26T00:20:33;98771.03;;;13.09;100.00
43364;BME280;40636;52.424;-1.948;2022-10-26T00:23:00;98762.75;;;13.09;100.00
43364;BME280;40636;52.424;-1.948;2022-10-26T00:25:27;98762.44;;;13.11;100.00
43364;BME280;40636;52.424;-1.948;2022-10-26T00:27:54;98766.34;;;13.10;100.00
43364;BME280;40636;52.424;-1.948;2022-10-26T00:30:20;98753.38;;;13.10;100.00
43364;BME280;40636;52.424;-1.948;2022-10-26T00:32:47;98755.00;;;13.11;100.00
43364;BME280;40636;52.424;-1.948;2022-10-26T00:35:14;98756.63;;;13.12;100.00
43364;BME280;40636;52.424;-1.948;2022-10-26T00:37:54;98753.59;;;13.14;100.00
43364;BME280;40636;52.424;-1.948;2022-10-26T00:40:26;98743.72;;;13.13;100.00
43364;BME280;40636;52.424;-1.948;2022-10-26T00:42:53;98750.53;;;13.15;100.00
43364;BME280;40636;52.424;-1.948;2022-10-26T00:50:23;98736.69;;;13.20;100.00
43364;BME280;40636;52.424;-1.948;2022-10-26T00:52:52;98733.91;;;13.26;100.00
43364;BME280;40636;52.424;-1.948;2022-10-26T00:55:24;98739.03;;;13.32;100.00
43364;BME280;40636;52.424;-1.948;2022-10-26T00:57:53;98739.88;;;13.33;100.00
43364;BME280;40636;52.424;-1.948;2022-10-26T01:00:21;98733.75;;;13.36;100.00
43364;BME280;40636;52.424;-1.948;2022-10-26T01:02:50;98731.50;;;13.38;100.00
43364;BME280;40636;52.424;-1.948;2022-10-26T01:05:18;98713.28;;;13.42;100.00
43364;BME280;40636;52.424;-1.948;2022-10-26T01:07:46;98727.03;;;13.42;100.00
43364;BME280;40636;52.424;-1.948;2022-10-26T01:10:13;98724.28;;;13.42;100.00
43364;BME280;40636;52.424;-1.948;2022-10-26T01:12:41;98728.16;;;13.41;100.00
43364;BME280;40636;52.424;-1.948;2022-10-26T01:15:08;98727.03;;;13.42;100.00
43364;BME280;40636;52.424;-1.948;2022-10-26T01:17:54;98721.75;;;13.45;100.00
43364;BME280;40636;52.424;-1.948;2022-10-26T01:20:38;98721.75;;;13.45;100.00
43364;BME280;40636;52.424;-1.948;2022-10-26T01:31:58;98718.63;;;13.52;100.00
43364;BME280;40636;52.424;-1.948;2022-10-26T01:34:32;98719.16;;;13.54;100.00
43364;BME280;40636;52.424;-1.948;2022-10-26T01:37:10;98714.97;;;13.57;100.00
43364;BME280;40636;52.424;-1.948;2022-10-26T01:39:41;98713.00;;;13.57;100.00
43364;BME280;40636;52.424;-1.948;2022-10-26T01:42:12;98709.75;;;13.55;100.00
43364;BME280;40636;52.424;-1.948;2022-10-26T01:45:07;98703.44;;;13.55;100.00
43364;BME280;40636;52.424;-1.948;2022-10-26T01:47:36;98704.84;;;13.52;100.00
43364;BME280;40636;52.424;-1.948;2022-10-26T01:50:04;98718.63;;;13.52;100.00
43364;BME280;40636;52.424;-1.948;2022-10-26T01:52:32;98711.97;;;13.53;100.00
43364;BME280;40636;52.424;-1.948;2022-10-26T01:55:32;98711.69;;;13.55;100.00
43364;BME280;40636;52.424;-1.948;2022-10-26T01:57:54;98694.63;;;13.53;100.00
43364;BME280;40636;52.424;-1.948;2022-10-26T02:00:25;98689.91;;;13.53;100.00
43364;BME280;40636;52.424;-1.948;2022-10-26T02:03:32;98687.16;;;13.53;100.00
43364;BME280;40636;52.424;-1.948;2022-10-26T02:06:21;98670.03;;;13.56;100.00
43364;BME280;40636;52.424;-1.948;2022-10-26T02:09:06;98677.19;;;13.57;100.00
43364;BME280;40636;52.424;-1.948;2022-10-26T02:11:39;98684.03;;;13.60;100.00
43364;BME280;40636;52.424;-1.948;2022-10-26T02:14:35;98683.22;;;13.59;100.00
43364;BME280;40636;52.424;-1.948;2022-10-26T02:19:43;98676.81;;;13.64;100.00
43364;BME280;40636;52.424;-1.948;2022-10-26T02:22:19;98675.38;;;13.66;100.00
43364;BME280;40636;52.424;-1.948;2022-10-26T02:24:50;98679.16;;;13.70;100.00
43364;BME280;40636;52.424;-1.948;2022-10-26T02:27:21;98684.47;;;13.67;100.00
43364;BME280;40636;52.424;-1.948;2022-10-26T02:29:51;98680.38;;;13.64;100.00
43364;BME280;40636;52.424;-1.948;2022-10-26T02:32:21;98684.25;;;13.63;100.00
43364;BME280;40636;52.424;-1.948;2022-10-26T02:34:50;98684.03;;;13.60;100.00
43364;BME280;40636;52.424;-1.948;2022-10-26T02:37:19;98682.91;;;13.61;100.00
43364;BME280;40636;52.424;-1.948;2022-10-26T02:39:49;98693.13;;;13.60;100.00
43364;BME280;40636;52.424;-1.948;2022-10-26T02:42:17;98696.47;;;13.57;100.00
43364;BME280;40636;52.424;-1.948;2022-10-26T02:44:50;98680.75;;;13.58;100.00
43364;BME280;40636;52.424;-1.948;2022-10-26T02:47:20;98684.63;;;13.57;100.00
43364;BME280;40636;52.424;-1.948;2022-10-26T02:49:47;98683.00;;;13.56;100.00
43364;BME280;40636;52.424;-1.948;2022-10-26T02:52:16;98681.16;;;13.51;100.00
43364;BME280;40636;52.424;-1.948;2022-10-26T02:57:39;98671.03;;;13.47;100.00
43364;BME280;40636;52.424;-1.948;2022-10-26T03:00:09;98665.22;;;13.48;100.00
43364;BME280;40636;52.424;-1.948;2022-10-26T03:02:42;98661.13;;;13.45;100.00
43364;BME280;40636;52.424;-1.948;2022-10-26T03:05:20;98658.06;;;13.47;100.00
43364;BME280;40636;52.424;-1.948;2022-10-26T03:07:48;98666.34;;;13.47;100.00
43364;BME280;40636;52.424;-1.948;2022-10-26T03:10:15;98671.84;;;13.47;100.00
43364;BME280;40636;52.424;-1.948;2022-10-26T03:12:42;98663.06;;;13.45;100.00
43364;BME280;40636;52.424;-1.948;2022-10-26T03:15:09;98664.38;;;13.48;100.00
43364;BME280;40636;52.424;-1.948;2022-10-26T03:17:35;98662.44;;;13.48;100.00
43364;BME280;40636;52.424;-1.948;2022-10-26T03:20:03;98659.69;;;13.48;100.00
43364;BME280;40636;52.424;-1.948;2022-10-26T03:22:29;98656.13;;;13.48;100.00
43364;BME280;40636;52.424;-1.948;2022-10-26T03:24:56;98663.56;;;13.47;100.00
43364;BME280;40636;52.424;-1.948;2022-10-26T03:27:23;98654.19;;;13.48;100.00
43364;BME280;40636;52.424;-1.948;2022-10-26T03:29:49;98656.94;;;13.48;100.00
43364;BME280;40636;52.424;-1.948;2022-10-26T03:32:16;98669.63;;;13.49;100.00
43364;BME280;40636;52.424;-1.948;2022-10-26T03:34:43;98662.97;;;13.50;100.00
43364;BME280;40636;52.424;-1.948;2022-10-26T03:37:09;98662.69;;;13.52;100.00
43364;BME280;40636;52.424;-1.948;2022-10-26T03:39:36;98665.97;;;13.54;100.00
43364;BME280;40636;52.424;-1.948;2022-10-26T03:42:03;98659.31;;;13.55;100.00
43364;BME280;40636;52.424;-1.948;2022-10-26T03:44:29;98657.88;;;13.57;100.00
43364;BME280;40636;52.424;-1.948;2022-10-26T03:46:56;98657.59;;;13.59;100.00
43364;BME280;40636;52.424;-1.948;2022-10-26T03:49:23;98666.38;;;13.61;100.00
43364;BME280;40636;52.424;-1.948;2022-10-26T03:51:49;98662.50;;;13.62;100.00
43364;BME280;40636;52.424;-1.948;2022-10-26T03:54:16;98665.78;;;13.64;100.00
43364;BME280;40636;52.424;-1.948;2022-10-26T03:56:44;98667.91;;;13.67;100.00
43364;BME280;40636;52.424;-1.948;2022-10-26T03:59:11;98666.00;;;13.67;100.00
43364;BME280;40636;52.424;-1.948;2022-10-26T04:01:38;98673.97;;;13.69;100.00
43364;BME280;40636;52.424;-1.948;2022-10-26T04:04:05;98668.13;;;13.70;100.00
43364;BME280;40636;52.424;-1.948;2022-10-26T04:06:32;98679.69;;;13.73;100.00
43364;BME280;40636;52.424;-1.948;2022-10-26T04:08:59;98670.59;;;13.72;100.00
43364;BME280;40636;52.424;-1.948;2022-10-26T04:11:28;98676.41;;;13.70;100.00
43364;BME280;40636;52.424;-1.948;2022-10-26T04:13:55;98667.09;;;13.66;100.00
43364;BME280;40636;52.424;-1.948;2022-10-26T04:16:25;98664.44;;;13.61;100.00
43364;BME280;40636;52.424;-1.948;2022-10-26T04:18:58;98658.41;;;13.59;100.00
43364;BME280;40636;52.424;-1.948;2022-10-26T04:21:25;98655.66;;;13.59;100.00
43364;BME280;40636;52.424;-1.948;2022-10-26T04:23:52;98660.13;;;13.55;100.00
43364;BME280;40636;52.424;-1.948;2022-10-26T04:26:19;98659.59;;;13.53;100.00
43364;BME280;40636;52.424;-1.948;2022-10-26T04:28:46;98666.34;;;13.47;100.00
43364;BME280;40636;52.424;-1.948;2022-10-26T04:31:12;98677.66;;;13.45;100.00
43364;BME280;40636;52.424;-1.948;2022-10-26T04:33:39;98674.19;;;13.40;100.00
43364;BME280;40636;52.424;-1.948;2022-10-26T04:36:06;98675.81;;;13.41;100.00
43364;BME280;40636;52.424;-1.948;2022-10-26T04:38:33;98683.84;;;13.37;100.00
43364;BME280;40636;52.424;-1.948;2022-10-26T04:41:00;98681.41;;;13.36;100.00
43364;BME280;40636;52.424;-1.948;2022-10-26T04:43:26;98680.66;;;13.30;100.00
43364;BME280;40636;52.424;-1.948;2022-10-26T04:45:57;98690.25;;;13.33;100.00
43364;BME280;40636;52.424;-1.948;2022-10-26T04:48:24;98690.25;;;13.33;100.00
43364;BME280;40636;52.424;-1.948;2022-10-26T04:50:59;98693.09;;;13.28;100.00
43364;BME280;40636;52.424;-1.948;2022-10-26T04:53:27;98673.28;;;13.26;100.00
43364;BME280;40636;52.424;-1.948;2022-10-26T04:55:58;98674.47;;;13.19;100.00
43364;BME280;40636;52.424;-1.948;2022-10-26T04:58:26;98684.44;;;13.15;100.00
43364;BME280;40636;52.424;-1.948;2022-10-26T05:00:53;98703.06;;;13.05;100.00
43364;BME280;40636;52.424;-1.948;2022-10-26T05:03:20;98687.69;;;12.99;100.00
43364;BME280;40636;52.424;-1.948;2022-10-26T05:05:47;98700.16;;;12.96;100.00
43364;BME280;40636;52.424;-1.948;2022-10-26T05:08:14;98709.31;;;12.91;100.00
43364;BME280;40636;52.424;-1.948;2022-10-26T05:10:41;98704.69;;;12.87;100.00
43364;BME280;40636;52.424;-1.948;2022-10-26T05:13:09;98704.69;;;12.87;100.00
43364;BME280;40636;52.424;-1.948;2022-10-26T05:15:36;98711.50;;;12.89;100.00
43364;BME280;40636;52.424;-1.948;2022-10-26T05:18:04;98717.56;;;12.91;100.00
43364;BME280;40636;52.424;-1.948;2022-10-26T05:20:33;98714.50;;;12.93;100.00
43364;BME280;40636;52.424;-1.948;2022-10-26T05:23:08;98724.63;;;12.98;100.00
43364;BME280;40636;52.424;-1.948;2022-10-26T05:25:37;98725.16;;;13.00;100.00
43364;BME280;40636;52.424;-1.948;2022-10-26T05:28:06;98713.25;;;13.04;100.00
43364;BME280;40636;52.424;-1.948;2022-10-26T05:30:35;98722.34;;;13.05;100.00
43364;BME280;40636;52.424;-1.948;2022-10-26T05:33:01;98706.31;;;13.07;100.00
43364;BME280;40636;52.424;-1.948;2022-10-26T05:35:31;98714.59;;;13.07;100.00
43364;BME280;40636;52.424;-1.948;2022-10-26T05:37:58;98701.13;;;13.05;100.00
43364;BME280;40636;52.424;-1.948;2022-10-26T05:40:25;98714.88;;;13.05;100.00
43364;BME280;40636;52.424;-1.948;2022-10-26T05:42:52;98712.44;;;13.04;100.00
43364;BME280;40636;52.424;-1.948;2022-10-26T05:45:24;98711.00;;;13.06;100.00
43364;BME280;40636;52.424;-1.948;2022-10-26T05:47:51;98722.56;;;13.08;100.00
43364;BME280;40636;52.424;-1.948;2022-10-26T05:50:18;98714.31;;;13.08;100.00
43364;BME280;40636;52.424;-1.948;2022-10-26T05:52:46;98709.31;;;13.10;100.00
43364;BME280;40636;52.424;-1.948;2022-10-26T05:55:15;98711.56;;;13.08;100.00
43364;BME280;40636;52.424;-1.948;2022-10-26T05:57:42;98715.84;;;13.14;100.00
43364;BME280;40636;52.424;-1.948;2022-10-26T06:00:21;98706.47;;;13.15;100.00
43364;BME280;40636;52.424;-1.948;2022-10-26T06:03:11;98708.09;;;13.16;100.00
43364;BME280;40636;52.424;-1.948;2022-10-26T06:05:55;98701.50;;;13.17;100.00
43364;BME280;40636;52.424;-1.948;2022-10-26T06:08:25;98707.50;;;13.19;100.00
43364;BME280;40636;52.424;-1.948;2022-10-26T06:10:54;98702.00;;;13.19;100.00
43364;BME280;40636;52.424;-1.948;2022-10-26T06:13:22;98698.13;;;13.20;100.00
43364;BME280;40636;52.424;-1.948;2022-10-26T06:19:22;98703.34;;;13.03;100.00
43364;BME280;40636;52.424;-1.948;2022-10-26T06:22:13;98704.75;;;13.01;100.00
43364;BME280;40636;52.424;-1.948;2022-10-26T06:28:02;98720.47;;;13.00;100.00
43364;BME280;40636;52.424;-1.948;2022-10-26T06:30:30;98719.84;;;13.03;100.00
43364;BME280;40636;52.424;-1.948;2022-10-26T06:32:57;98721.53;;;13.04;100.00
43364;BME280;40636;52.424;-1.948;2022-10-26T06:38:14;98725.59;;;13.07;100.00
43364;BME280;40636;52.424;-1.948;2022-10-26T06:40:44;98724.19;;;13.09;100.00
43364;BME280;40636;52.424;-1.948;2022-10-26T06:43:33;98741.22;;;13.11;100.00
43364;BME280;40636;52.424;-1.948;2022-10-26T06:49:17;98740.66;;;13.14;100.00
43364;BME280;40636;52.424;-1.948;2022-10-26T06:54:52;98745.56;;;13.17;100.00
43364;BME280;40636;52.424;-1.948;2022-10-26T06:57:21;98742.81;;;13.17;100.00
43364;BME280;40636;52.424;-1.948;2022-10-26T07:00:02;98738.94;;;13.18;100.00
43364;BME280;40636;52.424;-1.948;2022-10-26T07:02:29;98744.41;;;13.24;100.00
43364;BME280;40636;52.424;-1.948;2022-10-26T07:04:56;98744.41;;;13.24;100.00
43364;BME280;40636;52.424;-1.948;2022-10-26T07:07:25;98750.44;;;13.26;100.00
43364;BME280;40636;52.424;-1.948;2022-10-26T07:09:52;98751.78;;;13.28;100.00
43364;BME280;40636;52.424;-1.948;2022-10-26T07:12:19;98743.75;;;13.32;100.00
43364;BME280;40636;52.424;-1.948;2022-10-26T07:14:46;98723.34;;;13.33;100.00
43364;BME280;40636;52.424;-1.948;2022-10-26T07:17:13;98700.69;;;13.36;100.00
43364;BME280;40636;52.424;-1.948;2022-10-26T07:19:40;98718.88;;;13.37;100.00
43364;BME280;40636;52.424;-1.948;2022-10-26T07:22:08;98731.22;;;13.39;100.00
43364;BME280;40636;52.424;-1.948;2022-10-26T07:24:35;98737.56;;;13.40;100.00
43364;BME280;40636;52.424;-1.948;2022-10-26T07:27:02;98734.19;;;13.43;100.00
43364;BME280;40636;52.424;-1.948;2022-10-26T07:29:28;98739.41;;;13.44;100.00
43364;BME280;40636;52.424;-1.948;2022-10-26T07:31:55;98718.69;;;13.47;100.00
43364;BME280;40636;52.424;-1.948;2022-10-26T07:34:22;98720.63;;;13.47;100.00
43364;BME280;40636;52.424;-1.948;2022-10-26T07:36:49;98731.34;;;13.48;100.00
43364;BME280;40636;52.424;-1.948;2022-10-26T07:39:17;98742.81;;;13.55;100.00
43364;BME280;40636;52.424;-1.948;2022-10-26T07:41:44;98747.75;;;13.58;100.00
43364;BME280;40636;52.424;-1.948;2022-10-26T07:44:11;98759.28;;;13.60;100.00
43364;BME280;40636;52.424;-1.948;2022-10-26T07:46:38;98758.47;;;13.60;100.00
43364;BME280;40636;52.424;-1.948;2022-10-26T07:49:04;98760.63;;;13.63;100.00
43364;BME280;40636;52.424;-1.948;2022-10-26T07:51:31;98770.22;;;13.65;100.00
43364;BME280;40636;52.424;-1.948;2022-10-26T07:53:58;98771.84;;;13.66;100.00
43364;BME280;40636;52.424;-1.948;2022-10-26T07:56:25;98778.19;;;13.67;100.00
43364;BME280;40636;52.424;-1.948;2022-10-26T07:58:52;98779.75;;;13.73;100.00
43364;BME280;40636;52.424;-1.948;2022-10-26T08:01:20;98796.53;;;13.77;100.00
43364;BME280;40636;52.424;-1.948;2022-10-26T08:03:51;98778.06;;;13.77;100.00
43364;BME280;40636;52.424;-1.948;2022-10-26T08:06:19;98784.38;;;13.78;100.00
43364;BME280;40636;52.424;-1.948;2022-10-26T08:08:47;98794.81;;;13.81;100.00
43364;BME280;40636;52.424;-1.948;2022-10-26T08:11:14;98796.13;;;13.83;100.00
43364;BME280;40636;52.424;-1.948;2022-10-26T08:13:41;98796.97;;;13.84;100.00
43364;BME280;40636;52.424;-1.948;2022-10-26T08:16:08;98798.59;;;13.85;100.00
43364;BME280;40636;52.424;-1.948;2022-10-26T08:18:36;98810.97;;;13.87;100.00
43364;BME280;40636;52.424;-1.948;2022-10-26T08:21:05;98817.22;;;13.93;100.00
43364;BME280;40636;52.424;-1.948;2022-10-26T08:23:37;98823.53;;;13.93;100.00
43364;BME280;40636;52.424;-1.948;2022-10-26T08:26:05;98836.53;;;13.93;100.00
43364;BME280;40636;52.424;-1.948;2022-10-26T08:28:31;98834.88;;;13.92;100.00
43364;BME280;40636;52.424;-1.948;2022-10-26T08:30:58;98833.69;;;13.98;100.00
43364;BME280;40636;52.424;-1.948;2022-10-26T08:33:25;98830.09;;;13.98;100.00
43364;BME280;40636;52.424;-1.948;2022-10-26T08:35:59;98844.94;;;14.02;100.00
43364;BME280;40636;52.424;-1.948;2022-10-26T08:38:27;98847.59;;;14.07;100.00
43364;BME280;40636;52.424;-1.948;2022-10-26T08:40:55;98857.47;;;14.13;100.00
43364;BME280;40636;52.424;-1.948;2022-10-26T08:43:30;98857.66;;;14.16;100.00
43364;BME280;40636;52.424;-1.948;2022-10-26T08:46:06;98852.06;;;14.21;100.00
43364;BME280;40636;52.424;-1.948;2022-10-26T08:48:38;98852.50;;;14.29;100.00
43364;BME280;40636;52.424;-1.948;2022-10-26T08:51:16;98853.03;;;14.31;100.00
43364;BME280;40636;52.424;-1.948;2022-10-26T08:53:56;98853.53;;;14.33;100.00
43364;BME280;40636;52.424;-1.948;2022-10-26T08:56:27;98843.63;;;14.32;100.00
43364;BME280;40636;52.424;-1.948;2022-10-26T08:58:58;98863.44;;;14.34;100.00
43364;BME280;40636;52.424;-1.948;2022-10-26T09:01:30;98861.09;;;14.27;100.00
43364;BME280;40636;52.424;-1.948;2022-10-26T09:03:57;98855.03;;;14.25;100.00
43364;BME280;40636;52.424;-1.948;2022-10-26T09:06:33;98855.25;;;14.29;100.00
43364;BME280;40636;52.424;-1.948;2022-10-26T09:09:16;98855.97;;;14.34;100.00
43364;BME280;40636;52.424;-1.948;2022-10-26T09:15:12;98857.84;;;14.39;100.00
43364;BME280;40636;52.424;-1.948;2022-10-26T09:23:35;98867.75;;;14.59;100.00
43364;BME280;40636;52.424;-1.948;2022-10-26T09:26:12;98880.56;;;14.68;100.00
43364;BME280;40636;52.424;-1.948;2022-10-26T09:28:40;98877.09;;;14.77;100.00
43364;BME280;40636;52.424;-1.948;2022-10-26T09:31:13;98878.63;;;14.83;100.00
43364;BME280;40636;52.424;-1.948;2022-10-26T09:33:41;98885.19;;;14.87;100.00
43364;BME280;40636;52.424;-1.948;2022-10-26T09:36:11;98899.22;;;14.90;100.00
43364;BME280;40636;52.424;-1.948;2022-10-26T09:39:10;98913.03;;;14.90;100.00
43364;BME280;40636;52.424;-1.948;2022-10-26T09:41:42;98930.41;;;14.91;100.00
43364;BME280;40636;52.424;-1.948;2022-10-26T09:44:19;98918.72;;;14.94;100.00
43364;BME280;40636;52.424;-1.948;2022-10-26T09:49:53;98935.16;;;15.04;100.00
43364;BME280;40636;52.424;-1.948;2022-10-26T09:52:21;98934.41;;;15.12;100.00
43364;BME280;40636;52.424;-1.948;2022-10-26T09:54:48;98949.47;;;15.20;100.00
43364;BME280;40636;52.424;-1.948;2022-10-26T09:57:18;98952.25;;;15.34;100.00
43364;BME280;40636;52.424;-1.948;2022-10-26T09:59:46;98954.41;;;15.37;100.00
43364;BME280;40636;52.424;-1.948;2022-10-26T10:02:35;98961.56;;;15.38;100.00
43364;BME280;40636;52.424;-1.948;2022-10-26T10:05:15;98969.38;;;15.36;100.00
43364;BME280;40636;52.424;-1.948;2022-10-26T10:08:21;98955.22;;;15.37;100.00
43364;BME280;40636;52.424;-1.948;2022-10-26T10:13:39;98977.25;;;15.42;100.00
43364;BME280;40636;52.424;-1.948;2022-10-26T10:18:55;98986.66;;;15.28;100.00
43364;BME280;40636;52.424;-1.948;2022-10-26T10:21:33;98979.66;;;15.16;100.00
43364;BME280;40636;52.424;-1.948;2022-10-26T10:24:01;98984.88;;;15.04;100.00
43364;BME280;40636;52.424;-1.948;2022-10-26T10:26:28;98986.16;;;14.93;100.00
43364;BME280;40636;52.424;-1.948;2022-10-26T10:28:57;98988.44;;;14.91;100.00
43364;BME280;40636;52.424;-1.948;2022-10-26T10:31:32;98989.13;;;14.83;100.00
43364;BME280;40636;52.424;-1.948;2022-10-26T10:33:59;98992.56;;;14.75;100.00
43364;BME280;40636;52.424;-1.948;2022-10-26T10:36:28;98994.06;;;14.67;100.00
43364;BME280;40636;52.424;-1.948;2022-10-26T10:38:55;99005.72;;;14.64;100.00
43364;BME280;40636;52.424;-1.948;2022-10-26T10:41:29;98997.56;;;14.73;100.00
43364;BME280;40636;52.424;-1.948;2022-10-26T10:46:43;99007.72;;;15.10;100.00
43364;BME280;40636;52.424;-1.948;2022-10-26T10:49:23;99015.34;;;15.32;100.00
43364;BME280;40636;52.424;-1.948;2022-10-26T10:51:54;99011.03;;;15.53;100.00
43364;BME280;40636;52.424;-1.948;2022-10-26T10:54:32;99014.03;;;15.70;100.00
43364;BME280;40636;52.424;-1.948;2022-10-26T10:57:10;99007.69;;;15.84;100.00
43364;BME280;40636;52.424;-1.948;2022-10-26T11:00:05;99017.22;;;15.91;100.00
43364;BME280;40636;52.424;-1.948;2022-10-26T11:08:08;99029.47;;;15.58;100.00
43364;BME280;40636;52.424;-1.948;2022-10-26T11:10:43;99046.00;;;15.63;100.00
43364;BME280;40636;52.424;-1.948;2022-10-26T11:13:19;99054.50;;;15.66;100.00
43364;BME280;40636;52.424;-1.948;2022-10-26T11:15:49;99062.88;;;15.61;100.00
43364;BME280;40636;52.424;-1.948;2022-10-26T11:18:35;99053.66;;;15.52;100.00
43364;BME280;40636;52.424;-1.948;2022-10-26T11:21:15;99077.81;;;15.46;100.00
43364;BME280;40636;52.424;-1.948;2022-10-26T11:24:10;99081.00;;;15.40;100.00
43364;BME280;40636;52.424;-1.948;2022-10-26T11:26:43;99092.09;;;15.35;100.00
43364;BME280;40636;52.424;-1.948;2022-10-26T11:32:29;99091.56;;;15.19;100.00
43364;BME280;40636;52.424;-1.948;2022-10-26T11:43:34;99106.59;;;15.92;100.00
43364;BME280;40636;52.424;-1.948;2022-10-26T11:51:03;99118.25;;;16.03;100.00
43364;BME280;40636;52.424;-1.948;2022-10-26T11:53:36;99134.16;;;15.97;100.00
43364;BME280;40636;52.424;-1.948;2022-10-26T11:56:15;99136.69;;;15.80;100.00
43364;BME280;40636;52.424;-1.948;2022-10-26T11:58:45;99146.31;;;15.68;100.00
43364;BME280;40636;52.424;-1.948;2022-10-26T12:01:14;99132.94;;;15.57;100.00
43364;BME280;40636;52.424;-1.948;2022-10-26T12:03:46;99146.53;;;15.53;100.00
43364;BME280;40636;52.424;-1.948;2022-10-26T12:06:21;99146.53;;;15.53;100.00
43364;BME280;40636;52.424;-1.948;2022-10-26T12:08:56;99150.28;;;15.43;100.00
43364;BME280;40636;52.424;-1.948;2022-10-26T12:14:12;99159.00;;;15.37;100.00
43364;BME280;40636;52.424;-1.948;2022-10-26T12:19:24;99159.34;;;15.49;100.00
43364;BME280;40636;52.424;-1.948;2022-10-26T12:21:55;99167.09;;;15.47;100.00
43364;BME280;40636;52.424;-1.948;2022-10-26T12:26:55;99170.00;;;15.56;100.00
43364;BME280;40636;52.424;-1.948;2022-10-26T12:29:43;99174.47;;;15.70;100.00
43364;BME280;40636;52.424;-1.948;2022-10-26T12:35:01;99180.97;;;15.93;100.00
43364;BME280;40636;52.424;-1.948;2022-10-26T12:37:34;99182.31;;;15.82;100.00
43364;BME280;40636;52.424;-1.948;2022-10-26T12:40:37;99186.59;;;15.75;100.00
43364;BME280;40636;52.424;-1.948;2022-10-26T12:45:45;99189.16;;;15.85;100.00
43364;BME280;40636;52.424;-1.948;2022-10-26T12:48:47;99194.09;;;15.88;100.00
43364;BME280;40636;52.424;-1.948;2022-10-26T13:02:47;99208.13;;;15.78;100.00
43364;BME280;40636;52.424;-1.948;2022-10-26T13:08:14;99216.03;;;15.98;100.00
43364;BME280;40636;52.424;-1.948;2022-10-26T13:11:00;99227.22;;;15.93;100.00
43364;BME280;40636;52.424;-1.948;2022-10-26T13:13:30;99227.31;;;15.88;100.00
43364;BME280;40636;52.424;-1.948;2022-10-26T13:15:59;99224.41;;;15.79;100.00
43364;BME280;40636;52.424;-1.948;2022-10-26T13:18:26;99224.72;;;15.78;100.00
43364;BME280;40636;52.424;-1.948;2022-10-26T13:21:09;99226.03;;;15.80;100.00
43364;BME280;40636;52.424;-1.948;2022-10-26T13:23:54;99235.25;;;15.76;100.00
43364;BME280;40636;52.424;-1.948;2022-10-26T13:26:32;99250.75;;;15.77;100.00
43364;BME280;40636;52.424;-1.948;2022-10-26T13:29:18;99245.34;;;15.85;100.00
43364;BME280;40636;52.424;-1.948;2022-10-26T13:34:17;99247.22;;;15.90;100.00
43364;BME280;40636;52.424;-1.948;2022-10-26T13:37:34;99243.53;;;15.94;100.00
43364;BME280;40636;52.424;-1.948;2022-10-26T13:39:39;99251.94;;;16.03;100.00
43364;BME280;40636;52.424;-1.948;2022-10-26T13:42:13;99259.13;;;16.04;100.00
43364;BME280;40636;52.424;-1.948;2022-10-26T13:44:51;99246.38;;;16.03;100.00
43364;BME280;40636;52.424;-1.948;2022-10-26T13:50:14;99261.19;;;16.12;100.00
43364;BME280;40636;52.424;-1.948;2022-10-26T13:52:44;99254.44;;;16.18;100.00
43364;BME280;40636;52.424;-1.948;2022-10-26T14:00:37;99259.16;;;16.18;100.00
43364;BME280;40636;52.424;-1.948;2022-10-26T14:03:13;99264.25;;;16.11;100.00
43364;BME280;40636;52.424;-1.948;2022-10-26T14:05:45;99259.63;;;16.06;100.00
43364;BME280;40636;52.424;-1.948;2022-10-26T14:08:16;99267.94;;;16.06;100.00
43364;BME280;40636;52.424;-1.948;2022-10-26T14:10:55;99270.63;;;16.11;100.00
43364;BME280;40636;52.424;-1.948;2022-10-26T14:13:24;99267.84;;;16.11;100.00
43364;BME280;40636;52.424;-1.948;2022-10-26T14:15:53;99270.00;;;16.14;100.00
43364;BME280;40636;52.424;-1.948;2022-10-26T14:18:31;99276.69;;;16.13;100.00
43364;BME280;40636;52.424;-1.948;2022-10-26T14:23:35;99275.09;;;16.07;100.00
43364;BME280;40636;52.424;-1.948;2022-10-26T14:26:03;99285.91;;;16.09;100.00
43364;BME280;40636;52.424;-1.948;2022-10-26T14:28:36;99284.53;;;16.06;100.00
43364;BME280;40636;52.424;-1.948;2022-10-26T14:31:11;99287.72;;;16.00;100.00
43364;BME280;40636;52.424;-1.948;2022-10-26T14:33:44;99286.75;;;15.90;100.00
43364;BME280;40636;52.424;-1.948;2022-10-26T14:36:12;99293.13;;;15.91;100.00
43364;BME280;40636;52.424;-1.948;2022-10-26T14:38:44;99289.63;;;15.85;100.00
43364;BME280;40636;52.424;-1.948;2022-10-26T14:41:15;99300.38;;;15.87;100.00
43364;BME280;40636;52.424;-1.948;2022-10-26T14:43:43;99296.47;;;15.88;100.00
43364;BME280;40636;52.424;-1.948;2022-10-26T14:46:15;99304.19;;;15.91;100.00
43364;BME280;40636;52.424;-1.948;2022-10-26T14:48:56;99307.03;;;15.86;100.00
43364;BME280;40636;52.424;-1.948;2022-10-26T14:51:29;99302.91;;;15.83;100.00
43364;BME280;40636;52.424;-1.948;2022-10-26T14:53:58;99305.38;;;15.85;100.00
43364;BME280;40636;52.424;-1.948;2022-10-26T14:59:11;99313.56;;;15.76;100.00
43364;BME280;40636;52.424;-1.948;2022-10-26T15:01:58;99305.38;;;15.66;100.00
43364;BME280;40636;52.424;-1.948;2022-10-26T15:04:38;99324.16;;;15.69;100.00